sensor_id;sensor_type;location;lat;lon;timestamp;P1;durP1;ratioP1;P2;durP2;ratioP2
53881;SDS011;39794;55.782;37.452;2022-12-29T00:01:54;1.90;;;1.15;;
53881;SDS011;39794;55.782;37.452;2022-12-29T00:04:26;2.35;;;0.90;;
53881;SDS011;39794;55.782;37.452;2022-12-29T00:06:55;3.65;;;1.30;;
53881;SDS011;39794;55.782;37.452;2022-12-29T00:09:23;3.63;;;1.52;;
53881;SDS011;39794;55.782;37.452;2022-12-29T00:11:53;1.35;;;0.65;;
53881;SDS011;39794;55.782;37.452;2022-12-29T00:14:21;3.03;;;1.33;;
53881;SDS011;39794;55.782;37.452;2022-12-29T00:17:07;2.78;;;1.40;;
53881;SDS011;39794;55.782;37.452;2022-12-29T00:19:37;3.92;;;1.23;;
53881;SDS011;39794;55.782;37.452;2022-12-29T00:22:23;5.00;;;1.25;;
53881;SDS011;39794;55.782;37.452;2022-12-29T00:25:09;1.48;;;1.02;;
53881;SDS011;39794;55.782;37.452;2022-12-29T00:27:58;1.77;;;1.00;;
53881;SDS011;39794;55.782;37.452;2022-12-29T00:30:44;2.38;;;1.13;;
53881;SDS011;39794;55.782;37.452;2022-12-29T00:33:30;2.10;;;0.98;;
53881;SDS011;39794;55.782;37.452;2022-12-29T00:36:21;2.47;;;0.98;;
53881;SDS011;39794;55.782;37.452;2022-12-29T00:38:53;1.42;;;1.00;;
53881;SDS011;39794;55.782;37.452;2022-12-29T00:41:41;0.80;;;0.75;;
53881;SDS011;39794;55.782;37.452;2022-12-29T00:44:26;2.05;;;0.98;;
53881;SDS011;39794;55.782;37.452;2022-12-29T00:46:55;1.00;;;0.80;;
53881;SDS011;39794;55.782;37.452;2022-12-29T00:49:29;2.05;;;1.08;;
53881;SDS011;39794;55.782;37.452;2022-12-29T00:52:02;1.40;;;0.98;;
53881;SDS011;39794;55.782;37.452;2022-12-29T00:54:33;3.25;;;1.20;;
53881;SDS011;39794;55.782;37.452;2022-12-29T00:57:03;4.80;;;0.98;;
53881;SDS011;39794;55.782;37.452;2022-12-29T00:59:35;1.48;;;0.70;;
53881;SDS011;39794;55.782;37.452;2022-12-29T01:02:03;3.33;;;0.82;;
53881;SDS011;39794;55.782;37.452;2022-12-29T01:04:33;4.07;;;0.77;;
53881;SDS011;39794;55.782;37.452;2022-12-29T01:07:02;1.02;;;0.70;;
53881;SDS011;39794;55.782;37.452;2022-12-29T01:09:31;2.17;;;0.93;;
53881;SDS011;39794;55.782;37.452;2022-12-29T01:12:17;3.80;;;0.80;;
53881;SDS011;39794;55.782;37.452;2022-12-29T01:15:09;3.13;;;1.27;;
53881;SDS011;39794;55.782;37.452;2022-12-29T01:17:39;2.83;;;1.20;;
53881;SDS011;39794;55.782;37.452;2022-12-29T01:20:07;6.75;;;1.25;;
53881;SDS011;39794;55.782;37.452;2022-12-29T01:22:38;4.57;;;1.08;;
53881;SDS011;39794;55.782;37.452;2022-12-29T01:25:09;3.28;;;0.80;;
53881;SDS011;39794;55.782;37.452;2022-12-29T01:27:38;3.60;;;1.10;;
53881;SDS011;39794;55.782;37.452;2022-12-29T01:30:07;4.15;;;1.75;;
53881;SDS011;39794;55.782;37.452;2022-12-29T01:32:37;1.67;;;0.80;;
53881;SDS011;39794;55.782;37.452;2022-12-29T01:35:06;3.58;;;1.15;;
53881;SDS011;39794;55.782;37.452;2022-12-29T01:37:39;2.78;;;1.38;;
53881;SDS011;39794;55.782;37.452;2022-12-29T01:40:07;4.20;;;1.48;;
53881;SDS011;39794;55.782;37.452;2022-12-29T01:42:39;4.25;;;1.08;;
53881;SDS011;39794;55.782;37.452;2022-12-29T01:45:09;2.45;;;1.10;;
53881;SDS011;39794;55.782;37.452;2022-12-29T01:47:41;2.92;;;0.93;;
53881;SDS011;39794;55.782;37.452;2022-12-29T01:50:11;1.85;;;1.13;;
53881;SDS011;39794;55.782;37.452;2022-12-29T01:52:50;4.60;;;1.10;;
53881;SDS011;39794;55.782;37.452;2022-12-29T01:55:20;2.20;;;1.50;;
53881;SDS011;39794;55.782;37.452;2022-12-29T01:57:49;4.68;;;1.02;;
53881;SDS011;39794;55.782;37.452;2022-12-29T02:00:22;2.38;;;1.13;;
53881;SDS011;39794;55.782;37.452;2022-12-29T02:02:52;5.35;;;1.30;;
53881;SDS011;39794;55.782;37.452;2022-12-29T02:05:23;4.70;;;1.52;;
53881;SDS011;39794;55.782;37.452;2022-12-29T02:07:55;2.85;;;1.20;;
53881;SDS011;39794;55.782;37.452;2022-12-29T02:10:24;2.80;;;0.93;;
53881;SDS011;39794;55.782;37.452;2022-12-29T02:12:55;4.95;;;1.08;;
53881;SDS011;39794;55.782;37.452;2022-12-29T02:15:27;3.40;;;1.02;;
53881;SDS011;39794;55.782;37.452;2022-12-29T02:18:10;3.80;;;1.10;;
53881;SDS011;39794;55.782;37.452;2022-12-29T02:20:57;3.30;;;0.90;;
53881;SDS011;39794;55.782;37.452;2022-12-29T02:24:03;3.33;;;0.88;;
53881;SDS011;39794;55.782;37.452;2022-12-29T02:26:47;5.35;;;1.17;;
53881;SDS011;39794;55.782;37.452;2022-12-29T02:29:29;5.03;;;1.25;;
53881;SDS011;39794;55.782;37.452;2022-12-29T02:32:23;5.38;;;1.38;;
53881;SDS011;39794;55.782;37.452;2022-12-29T02:35:03;4.63;;;1.98;;
53881;SDS011;39794;55.782;37.452;2022-12-29T02:37:40;4.60;;;1.20;;
53881;SDS011;39794;55.782;37.452;2022-12-29T02:40:13;5.53;;;1.60;;
53881;SDS011;39794;55.782;37.452;2022-12-29T02:42:48;6.15;;;1.83;;
53881;SDS011;39794;55.782;37.452;2022-12-29T02:45:20;3.83;;;1.60;;
53881;SDS011;39794;55.782;37.452;2022-12-29T02:47:53;2.53;;;1.20;;
53881;SDS011;39794;55.782;37.452;2022-12-29T02:50:25;4.60;;;0.98;;
53881;SDS011;39794;55.782;37.452;2022-12-29T02:52:57;4.65;;;1.13;;
53881;SDS011;39794;55.782;37.452;2022-12-29T02:55:27;3.22;;;1.10;;
53881;SDS011;39794;55.782;37.452;2022-12-29T02:58:15;6.47;;;1.45;;
53881;SDS011;39794;55.782;37.452;2022-12-29T03:00:48;2.67;;;1.20;;
53881;SDS011;39794;55.782;37.452;2022-12-29T03:03:29;5.10;;;1.63;;
53881;SDS011;39794;55.782;37.452;2022-12-29T03:06:12;4.13;;;0.88;;
53881;SDS011;39794;55.782;37.452;2022-12-29T03:08:52;2.95;;;1.10;;
53881;SDS011;39794;55.782;37.452;2022-12-29T03:11:24;1.73;;;0.90;;
53881;SDS011;39794;55.782;37.452;2022-12-29T03:14:15;1.83;;;1.25;;
53881;SDS011;39794;55.782;37.452;2022-12-29T03:17:06;5.75;;;1.17;;
53881;SDS011;39794;55.782;37.452;2022-12-29T03:19:39;2.65;;;1.02;;
53881;SDS011;39794;55.782;37.452;2022-12-29T03:22:12;3.25;;;1.55;;
53881;SDS011;39794;55.782;37.452;2022-12-29T03:25:10;3.63;;;1.48;;
53881;SDS011;39794;55.782;37.452;2022-12-29T03:27:42;3.38;;;1.02;;
53881;SDS011;39794;55.782;37.452;2022-12-29T03:30:12;4.05;;;1.30;;
53881;SDS011;39794;55.782;37.452;2022-12-29T03:32:43;5.88;;;1.42;;
53881;SDS011;39794;55.782;37.452;2022-12-29T03:35:16;5.50;;;1.60;;
53881;SDS011;39794;55.782;37.452;2022-12-29T03:37:48;6.53;;;1.40;;
53881;SDS011;39794;55.782;37.452;2022-12-29T03:40:18;2.88;;;1.13;;
53881;SDS011;39794;55.782;37.452;2022-12-29T03:42:49;2.05;;;0.80;;
53881;SDS011;39794;55.782;37.452;2022-12-29T03:45:18;5.20;;;1.60;;
53881;SDS011;39794;55.782;37.452;2022-12-29T03:47:48;2.17;;;1.05;;
53881;SDS011;39794;55.782;37.452;2022-12-29T03:50:18;4.20;;;1.40;;
53881;SDS011;39794;55.782;37.452;2022-12-29T03:52:49;6.75;;;1.52;;
53881;SDS011;39794;55.782;37.452;2022-12-29T03:55:17;6.32;;;1.48;;
53881;SDS011;39794;55.782;37.452;2022-12-29T03:57:46;1.73;;;1.15;;
53881;SDS011;39794;55.782;37.452;2022-12-29T04:00:22;4.65;;;1.40;;
53881;SDS011;39794;55.782;37.452;2022-12-29T04:02:51;3.70;;;1.23;;
53881;SDS011;39794;55.782;37.452;2022-12-29T04:05:23;3.40;;;1.52;;
53881;SDS011;39794;55.782;37.452;2022-12-29T04:07:53;2.33;;;1.10;;
53881;SDS011;39794;55.782;37.452;2022-12-29T04:10:22;2.70;;;1.48;;
53881;SDS011;39794;55.782;37.452;2022-12-29T04:12:55;5.75;;;1.92;;
53881;SDS011;39794;55.782;37.452;2022-12-29T04:15:25;4.75;;;1.70;;
53881;SDS011;39794;55.782;37.452;2022-12-29T04:17:53;7.68;;;1.42;;
53881;SDS011;39794;55.782;37.452;2022-12-29T04:20:23;9.82;;;2.03;;
53881;SDS011;39794;55.782;37.452;2022-12-29T04:23:09;6.53;;;1.80;;
53881;SDS011;39794;55.782;37.452;2022-12-29T04:25:38;8.68;;;2.03;;
53881;SDS011;39794;55.782;37.452;2022-12-29T04:28:08;6.00;;;1.35;;
53881;SDS011;39794;55.782;37.452;2022-12-29T04:31:01;3.35;;;1.88;;
53881;SDS011;39794;55.782;37.452;2022-12-29T04:33:37;4.35;;;1.58;;
53881;SDS011;39794;55.782;37.452;2022-12-29T04:36:07;3.97;;;1.48;;
53881;SDS011;39794;55.782;37.452;2022-12-29T04:38:39;7.00;;;2.25;;
53881;SDS011;39794;55.782;37.452;2022-12-29T04:41:08;4.30;;;2.33;;
53881;SDS011;39794;55.782;37.452;2022-12-29T04:43:38;3.60;;;1.40;;
53881;SDS011;39794;55.782;37.452;2022-12-29T04:46:39;3.42;;;1.67;;
53881;SDS011;39794;55.782;37.452;2022-12-29T04:49:15;3.92;;;1.73;;
53881;SDS011;39794;55.782;37.452;2022-12-29T04:51:53;6.05;;;1.85;;
53881;SDS011;39794;55.782;37.452;2022-12-29T04:54:24;6.40;;;1.83;;
53881;SDS011;39794;55.782;37.452;2022-12-29T04:57:08;4.32;;;1.65;;
53881;SDS011;39794;55.782;37.452;2022-12-29T04:59:38;3.35;;;1.60;;
53881;SDS011;39794;55.782;37.452;2022-12-29T05:02:07;4.90;;;1.75;;
53881;SDS011;39794;55.782;37.452;2022-12-29T05:04:36;7.32;;;1.85;;
53881;SDS011;39794;55.782;37.452;2022-12-29T05:07:06;3.92;;;2.00;;
53881;SDS011;39794;55.782;37.452;2022-12-29T05:09:35;5.72;;;1.80;;
53881;SDS011;39794;55.782;37.452;2022-12-29T05:12:04;3.15;;;1.48;;
53881;SDS011;39794;55.782;37.452;2022-12-29T05:14:36;8.77;;;1.80;;
53881;SDS011;39794;55.782;37.452;2022-12-29T05:20:39;2.78;;;1.20;;
53881;SDS011;39794;55.782;37.452;2022-12-29T05:23:12;4.03;;;1.92;;
53881;SDS011;39794;55.782;37.452;2022-12-29T05:25:42;5.93;;;1.58;;
53881;SDS011;39794;55.782;37.452;2022-12-29T05:28:40;5.65;;;1.45;;
53881;SDS011;39794;55.782;37.452;2022-12-29T05:31:17;8.05;;;2.33;;
53881;SDS011;39794;55.782;37.452;2022-12-29T05:33:47;4.45;;;1.50;;
53881;SDS011;39794;55.782;37.452;2022-12-29T05:36:16;2.97;;;1.42;;
53881;SDS011;39794;55.782;37.452;2022-12-29T05:38:50;3.72;;;1.63;;
53881;SDS011;39794;55.782;37.452;2022-12-29T05:41:22;5.32;;;1.27;;
53881;SDS011;39794;55.782;37.452;2022-12-29T05:43:50;3.17;;;1.98;;
53881;SDS011;39794;55.782;37.452;2022-12-29T05:46:39;7.53;;;1.70;;
53881;SDS011;39794;55.782;37.452;2022-12-29T05:49:19;4.32;;;1.70;;
53881;SDS011;39794;55.782;37.452;2022-12-29T05:55:14;4.88;;;1.70;;
53881;SDS011;39794;55.782;37.452;2022-12-29T05:57:46;6.90;;;2.28;;
53881;SDS011;39794;55.782;37.452;2022-12-29T06:00:16;6.40;;;2.00;;
53881;SDS011;39794;55.782;37.452;2022-12-29T06:02:47;6.57;;;1.63;;
53881;SDS011;39794;55.782;37.452;2022-12-29T06:05:19;4.45;;;2.08;;
53881;SDS011;39794;55.782;37.452;2022-12-29T06:07:50;3.63;;;2.15;;
53881;SDS011;39794;55.782;37.452;2022-12-29T06:10:23;3.92;;;2.35;;
53881;SDS011;39794;55.782;37.452;2022-12-29T06:13:00;8.00;;;2.42;;
53881;SDS011;39794;55.782;37.452;2022-12-29T06:15:39;6.32;;;2.10;;
53881;SDS011;39794;55.782;37.452;2022-12-29T06:18:08;7.30;;;2.67;;
53881;SDS011;39794;55.782;37.452;2022-12-29T06:20:45;5.55;;;2.22;;
53881;SDS011;39794;55.782;37.452;2022-12-29T06:23:16;3.38;;;1.73;;
53881;SDS011;39794;55.782;37.452;2022-12-29T06:25:49;6.00;;;2.20;;
53881;SDS011;39794;55.782;37.452;2022-12-29T06:28:18;3.05;;;1.27;;
53881;SDS011;39794;55.782;37.452;2022-12-29T06:30:51;6.47;;;2.67;;
53881;SDS011;39794;55.782;37.452;2022-12-29T06:33:21;5.88;;;2.10;;
53881;SDS011;39794;55.782;37.452;2022-12-29T06:35:49;5.85;;;2.33;;
53881;SDS011;39794;55.782;37.452;2022-12-29T06:38:21;3.13;;;1.77;;
53881;SDS011;39794;55.782;37.452;2022-12-29T06:40:56;7.60;;;2.10;;
53881;SDS011;39794;55.782;37.452;2022-12-29T06:43:34;6.07;;;2.30;;
53881;SDS011;39794;55.782;37.452;2022-12-29T06:46:18;9.60;;;2.30;;
53881;SDS011;39794;55.782;37.452;2022-12-29T06:48:47;6.18;;;2.42;;
53881;SDS011;39794;55.782;37.452;2022-12-29T06:51:18;13.02;;;2.63;;
53881;SDS011;39794;55.782;37.452;2022-12-29T06:53:49;10.38;;;2.38;;
53881;SDS011;39794;55.782;37.452;2022-12-29T06:56:20;5.50;;;1.80;;
53881;SDS011;39794;55.782;37.452;2022-12-29T06:58:49;4.72;;;2.03;;
53881;SDS011;39794;55.782;37.452;2022-12-29T07:01:22;5.70;;;1.83;;
53881;SDS011;39794;55.782;37.452;2022-12-29T07:03:53;12.63;;;2.30;;
53881;SDS011;39794;55.782;37.452;2022-12-29T07:06:21;5.22;;;1.95;;
53881;SDS011;39794;55.782;37.452;2022-12-29T07:08:50;6.63;;;1.90;;
53881;SDS011;39794;55.782;37.452;2022-12-29T07:11:28;2.85;;;1.92;;
53881;SDS011;39794;55.782;37.452;2022-12-29T07:13:59;4.40;;;1.65;;
53881;SDS011;39794;55.782;37.452;2022-12-29T07:16:29;8.13;;;2.30;;
53881;SDS011;39794;55.782;37.452;2022-12-29T07:18:59;9.02;;;2.30;;
53881;SDS011;39794;55.782;37.452;2022-12-29T07:21:27;6.93;;;2.10;;
53881;SDS011;39794;55.782;37.452;2022-12-29T07:23:56;6.40;;;2.22;;
53881;SDS011;39794;55.782;37.452;2022-12-29T07:26:24;4.05;;;2.42;;
53881;SDS011;39794;55.782;37.452;2022-12-29T07:29:03;4.30;;;1.88;;
53881;SDS011;39794;55.782;37.452;2022-12-29T07:31:31;5.63;;;2.38;;
53881;SDS011;39794;55.782;37.452;2022-12-29T07:34:00;6.55;;;2.35;;
53881;SDS011;39794;55.782;37.452;2022-12-29T07:36:28;5.05;;;1.90;;
53881;SDS011;39794;55.782;37.452;2022-12-29T07:39:00;6.22;;;2.15;;
53881;SDS011;39794;55.782;37.452;2022-12-29T07:41:29;3.33;;;2.05;;
53881;SDS011;39794;55.782;37.452;2022-12-29T07:44:01;4.93;;;2.38;;
53881;SDS011;39794;55.782;37.452;2022-12-29T07:46:54;7.57;;;2.13;;
53881;SDS011;39794;55.782;37.452;2022-12-29T07:49:24;4.15;;;2.10;;
53881;SDS011;39794;55.782;37.452;2022-12-29T07:51:53;6.75;;;1.85;;
53881;SDS011;39794;55.782;37.452;2022-12-29T07:54:22;9.70;;;2.50;;
53881;SDS011;39794;55.782;37.452;2022-12-29T07:56:50;5.55;;;2.10;;
53881;SDS011;39794;55.782;37.452;2022-12-29T07:59:20;3.03;;;2.50;;
53881;SDS011;39794;55.782;37.452;2022-12-29T08:01:49;4.63;;;1.85;;
53881;SDS011;39794;55.782;37.452;2022-12-29T08:04:18;5.35;;;2.53;;
53881;SDS011;39794;55.782;37.452;2022-12-29T08:06:46;9.00;;;2.55;;
53881;SDS011;39794;55.782;37.452;2022-12-29T08:09:15;5.88;;;2.30;;
53881;SDS011;39794;55.782;37.452;2022-12-29T08:11:49;4.05;;;1.70;;
53881;SDS011;39794;55.782;37.452;2022-12-29T08:14:17;7.18;;;2.03;;
53881;SDS011;39794;55.782;37.452;2022-12-29T08:16:47;6.88;;;2.80;;
53881;SDS011;39794;55.782;37.452;2022-12-29T08:19:16;4.43;;;2.03;;
53881;SDS011;39794;55.782;37.452;2022-12-29T08:21:46;3.83;;;2.22;;
53881;SDS011;39794;55.782;37.452;2022-12-29T08:24:15;10.23;;;4.07;;
53881;SDS011;39794;55.782;37.452;2022-12-29T08:26:43;9.50;;;2.63;;
53881;SDS011;39794;55.782;37.452;2022-12-29T08:29:11;6.20;;;2.53;;
53881;SDS011;39794;55.782;37.452;2022-12-29T08:31:40;7.13;;;2.40;;
53881;SDS011;39794;55.782;37.452;2022-12-29T08:34:10;7.85;;;2.47;;
53881;SDS011;39794;55.782;37.452;2022-12-29T08:36:38;6.70;;;2.40;;
53881;SDS011;39794;55.782;37.452;2022-12-29T08:39:07;4.05;;;2.25;;
53881;SDS011;39794;55.782;37.452;2022-12-29T08:41:35;5.68;;;2.95;;
53881;SDS011;39794;55.782;37.452;2022-12-29T08:44:04;5.18;;;2.42;;
53881;SDS011;39794;55.782;37.452;2022-12-29T08:46:32;9.07;;;3.50;;
53881;SDS011;39794;55.782;37.452;2022-12-29T08:49:01;3.42;;;2.40;;
53881;SDS011;39794;55.782;37.452;2022-12-29T08:51:31;5.55;;;2.75;;
53881;SDS011;39794;55.782;37.452;2022-12-29T08:54:00;6.63;;;2.90;;
53881;SDS011;39794;55.782;37.452;2022-12-29T08:56:28;5.57;;;2.88;;
53881;SDS011;39794;55.782;37.452;2022-12-29T08:58:59;4.25;;;3.08;;
53881;SDS011;39794;55.782;37.452;2022-12-29T09:01:29;5.90;;;2.80;;
53881;SDS011;39794;55.782;37.452;2022-12-29T09:03:58;6.60;;;2.80;;
53881;SDS011;39794;55.782;37.452;2022-12-29T09:06:45;5.85;;;2.80;;
53881;SDS011;39794;55.782;37.452;2022-12-29T09:09:13;6.70;;;3.30;;
53881;SDS011;39794;55.782;37.452;2022-12-29T09:11:42;7.18;;;3.40;;
53881;SDS011;39794;55.782;37.452;2022-12-29T09:14:10;10.48;;;4.32;;
53881;SDS011;39794;55.782;37.452;2022-12-29T09:16:39;10.95;;;3.92;;
53881;SDS011;39794;55.782;37.452;2022-12-29T09:19:25;7.68;;;4.22;;
53881;SDS011;39794;55.782;37.452;2022-12-29T09:21:55;9.70;;;4.25;;
53881;SDS011;39794;55.782;37.452;2022-12-29T09:24:24;7.50;;;4.38;;
53881;SDS011;39794;55.782;37.452;2022-12-29T09:26:52;9.00;;;4.75;;
53881;SDS011;39794;55.782;37.452;2022-12-29T09:29:20;9.43;;;4.22;;
53881;SDS011;39794;55.782;37.452;2022-12-29T09:31:49;14.93;;;6.75;;
53881;SDS011;39794;55.782;37.452;2022-12-29T09:34:18;13.00;;;4.72;;
53881;SDS011;39794;55.782;37.452;2022-12-29T09:36:46;8.43;;;4.60;;
53881;SDS011;39794;55.782;37.452;2022-12-29T09:39:16;7.80;;;4.95;;
53881;SDS011;39794;55.782;37.452;2022-12-29T09:41:46;13.75;;;5.10;;
53881;SDS011;39794;55.782;37.452;2022-12-29T09:44:20;9.33;;;5.20;;
53881;SDS011;39794;55.782;37.452;2022-12-29T09:46:52;9.32;;;4.80;;
53881;SDS011;39794;55.782;37.452;2022-12-29T09:49:23;12.10;;;4.85;;
53881;SDS011;39794;55.782;37.452;2022-12-29T09:51:54;11.05;;;5.47;;
53881;SDS011;39794;55.782;37.452;2022-12-29T09:54:31;10.63;;;5.82;;
53881;SDS011;39794;55.782;37.452;2022-12-29T09:57:04;11.63;;;5.28;;
53881;SDS011;39794;55.782;37.452;2022-12-29T09:59:38;14.85;;;5.32;;
53881;SDS011;39794;55.782;37.452;2022-12-29T10:02:12;10.25;;;5.30;;
53881;SDS011;39794;55.782;37.452;2022-12-29T10:04:55;10.57;;;5.40;;
53881;SDS011;39794;55.782;37.452;2022-12-29T10:07:26;9.48;;;5.43;;
53881;SDS011;39794;55.782;37.452;2022-12-29T10:10:03;10.07;;;4.53;;
53881;SDS011;39794;55.782;37.452;2022-12-29T10:12:50;11.07;;;5.63;;
53881;SDS011;39794;55.782;37.452;2022-12-29T10:15:29;11.65;;;4.80;;
53881;SDS011;39794;55.782;37.452;2022-12-29T10:18:18;13.55;;;4.43;;
53881;SDS011;39794;55.782;37.452;2022-12-29T10:20:54;11.43;;;5.25;;
53881;SDS011;39794;55.782;37.452;2022-12-29T10:23:27;12.50;;;4.97;;
53881;SDS011;39794;55.782;37.452;2022-12-29T10:25:58;13.32;;;4.75;;
53881;SDS011;39794;55.782;37.452;2022-12-29T10:28:31;11.90;;;5.30;;
53881;SDS011;39794;55.782;37.452;2022-12-29T10:31:05;10.18;;;4.65;;
53881;SDS011;39794;55.782;37.452;2022-12-29T10:33:36;8.45;;;4.60;;
53881;SDS011;39794;55.782;37.452;2022-12-29T10:36:12;11.63;;;4.63;;
53881;SDS011;39794;55.782;37.452;2022-12-29T10:38:45;9.13;;;4.30;;
53881;SDS011;39794;55.782;37.452;2022-12-29T10:41:22;10.43;;;4.53;;
53881;SDS011;39794;55.782;37.452;2022-12-29T10:43:54;8.77;;;5.25;;
53881;SDS011;39794;55.782;37.452;2022-12-29T10:46:24;6.93;;;4.72;;
53881;SDS011;39794;55.782;37.452;2022-12-29T10:48:56;9.57;;;4.63;;
53881;SDS011;39794;55.782;37.452;2022-12-29T10:51:25;8.95;;;4.35;;
53881;SDS011;39794;55.782;37.452;2022-12-29T10:53:57;11.60;;;4.53;;
53881;SDS011;39794;55.782;37.452;2022-12-29T10:56:33;7.55;;;4.75;;
53881;SDS011;39794;55.782;37.452;2022-12-29T10:59:04;6.22;;;3.83;;
53881;SDS011;39794;55.782;37.452;2022-12-29T11:01:37;6.85;;;4.28;;
53881;SDS011;39794;55.782;37.452;2022-12-29T11:04:12;8.63;;;4.40;;
53881;SDS011;39794;55.782;37.452;2022-12-29T11:06:51;10.20;;;3.95;;
53881;SDS011;39794;55.782;37.452;2022-12-29T11:09:21;7.40;;;4.10;;
53881;SDS011;39794;55.782;37.452;2022-12-29T11:12:19;8.45;;;4.50;;
53881;SDS011;39794;55.782;37.452;2022-12-29T11:15:06;13.20;;;4.55;;
53881;SDS011;39794;55.782;37.452;2022-12-29T11:17:44;14.55;;;5.40;;
53881;SDS011;39794;55.782;37.452;2022-12-29T11:20:26;7.13;;;4.60;;
53881;SDS011;39794;55.782;37.452;2022-12-29T11:23:02;11.38;;;5.18;;
53881;SDS011;39794;55.782;37.452;2022-12-29T11:25:32;10.77;;;4.97;;
53881;SDS011;39794;55.782;37.452;2022-12-29T11:28:03;9.77;;;4.55;;
53881;SDS011;39794;55.782;37.452;2022-12-29T11:30:42;12.23;;;5.03;;
53881;SDS011;39794;55.782;37.452;2022-12-29T11:33:15;13.45;;;5.32;;
53881;SDS011;39794;55.782;37.452;2022-12-29T11:35:48;10.63;;;4.57;;
53881;SDS011;39794;55.782;37.452;2022-12-29T11:38:19;9.82;;;4.57;;
53881;SDS011;39794;55.782;37.452;2022-12-29T11:40:54;10.13;;;4.70;;
53881;SDS011;39794;55.782;37.452;2022-12-29T11:43:26;8.02;;;5.28;;
53881;SDS011;39794;55.782;37.452;2022-12-29T11:46:05;11.50;;;5.38;;
53881;SDS011;39794;55.782;37.452;2022-12-29T11:48:38;10.38;;;5.22;;
53881;SDS011;39794;55.782;37.452;2022-12-29T11:51:09;10.30;;;5.18;;
53881;SDS011;39794;55.782;37.452;2022-12-29T11:53:41;8.48;;;4.68;;
53881;SDS011;39794;55.782;37.452;2022-12-29T11:56:12;8.98;;;4.80;;
53881;SDS011;39794;55.782;37.452;2022-12-29T11:58:44;9.52;;;4.82;;
53881;SDS011;39794;55.782;37.452;2022-12-29T12:01:16;8.85;;;4.80;;
53881;SDS011;39794;55.782;37.452;2022-12-29T12:03:48;9.52;;;5.00;;
53881;SDS011;39794;55.782;37.452;2022-12-29T12:06:21;11.40;;;4.97;;
53881;SDS011;39794;55.782;37.452;2022-12-29T12:08:53;12.10;;;5.55;;
53881;SDS011;39794;55.782;37.452;2022-12-29T12:11:24;10.55;;;5.03;;
53881;SDS011;39794;55.782;37.452;2022-12-29T12:13:57;8.80;;;5.57;;
53881;SDS011;39794;55.782;37.452;2022-12-29T12:16:46;10.77;;;5.47;;
53881;SDS011;39794;55.782;37.452;2022-12-29T12:19:20;9.77;;;4.70;;
53881;SDS011;39794;55.782;37.452;2022-12-29T12:21:54;10.18;;;4.65;;
53881;SDS011;39794;55.782;37.452;2022-12-29T12:24:34;10.15;;;5.50;;
53881;SDS011;39794;55.782;37.452;2022-12-29T12:27:09;9.35;;;4.88;;
53881;SDS011;39794;55.782;37.452;2022-12-29T12:29:43;12.60;;;7.15;;
53881;SDS011;39794;55.782;37.452;2022-12-29T12:32:16;9.13;;;5.45;;
53881;SDS011;39794;55.782;37.452;2022-12-29T12:34:47;12.45;;;5.68;;
53881;SDS011;39794;55.782;37.452;2022-12-29T12:40:15;8.80;;;5.13;;
53881;SDS011;39794;55.782;37.452;2022-12-29T12:43:04;11.20;;;6.00;;
53881;SDS011;39794;55.782;37.452;2022-12-29T12:45:45;7.53;;;5.28;;
53881;SDS011;39794;55.782;37.452;2022-12-29T12:48:22;11.85;;;4.97;;
53881;SDS011;39794;55.782;37.452;2022-12-29T12:51:00;11.63;;;5.78;;
53881;SDS011;39794;55.782;37.452;2022-12-29T12:53:39;12.57;;;4.85;;
53881;SDS011;39794;55.782;37.452;2022-12-29T12:59:10;18.50;;;6.93;;
53881;SDS011;39794;55.782;37.452;2022-12-29T13:01:53;13.70;;;6.05;;
53881;SDS011;39794;55.782;37.452;2022-12-29T13:04:34;12.43;;;6.28;;
53881;SDS011;39794;55.782;37.452;2022-12-29T13:07:27;15.25;;;6.72;;
53881;SDS011;39794;55.782;37.452;2022-12-29T13:10:02;14.80;;;6.53;;
53881;SDS011;39794;55.782;37.452;2022-12-29T13:13:07;10.95;;;4.63;;
53881;SDS011;39794;55.782;37.452;2022-12-29T13:15:46;11.68;;;6.05;;
53881;SDS011;39794;55.782;37.452;2022-12-29T13:18:20;11.63;;;6.85;;
53881;SDS011;39794;55.782;37.452;2022-12-29T13:20:53;14.48;;;6.65;;
53881;SDS011;39794;55.782;37.452;2022-12-29T13:23:24;14.55;;;6.57;;
53881;SDS011;39794;55.782;37.452;2022-12-29T13:25:59;12.52;;;6.03;;
53881;SDS011;39794;55.782;37.452;2022-12-29T13:28:35;11.40;;;5.97;;
53881;SDS011;39794;55.782;37.452;2022-12-29T13:31:10;13.32;;;6.43;;
53881;SDS011;39794;55.782;37.452;2022-12-29T13:33:45;12.18;;;6.20;;
53881;SDS011;39794;55.782;37.452;2022-12-29T13:38:51;9.60;;;5.80;;
53881;SDS011;39794;55.782;37.452;2022-12-29T13:41:26;16.10;;;7.03;;
53881;SDS011;39794;55.782;37.452;2022-12-29T13:43:57;14.20;;;6.55;;
53881;SDS011;39794;55.782;37.452;2022-12-29T13:46:27;15.90;;;6.30;;
53881;SDS011;39794;55.782;37.452;2022-12-29T13:48:59;15.80;;;6.50;;
53881;SDS011;39794;55.782;37.452;2022-12-29T13:51:33;15.65;;;7.53;;
53881;SDS011;39794;55.782;37.452;2022-12-29T13:54:05;14.07;;;6.80;;
53881;SDS011;39794;55.782;37.452;2022-12-29T13:56:45;16.73;;;6.07;;
53881;SDS011;39794;55.782;37.452;2022-12-29T13:59:20;15.38;;;6.85;;
53881;SDS011;39794;55.782;37.452;2022-12-29T14:01:54;13.48;;;6.55;;
53881;SDS011;39794;55.782;37.452;2022-12-29T14:04:30;14.88;;;7.38;;
53881;SDS011;39794;55.782;37.452;2022-12-29T14:07:05;13.30;;;6.13;;
53881;SDS011;39794;55.782;37.452;2022-12-29T14:09:42;13.38;;;6.85;;
53881;SDS011;39794;55.782;37.452;2022-12-29T14:12:20;15.98;;;7.32;;
53881;SDS011;39794;55.782;37.452;2022-12-29T14:14:53;15.63;;;6.38;;
53881;SDS011;39794;55.782;37.452;2022-12-29T14:17:24;17.45;;;7.15;;
53881;SDS011;39794;55.782;37.452;2022-12-29T14:19:54;15.70;;;7.25;;
53881;SDS011;39794;55.782;37.452;2022-12-29T14:22:23;14.88;;;7.95;;
53881;SDS011;39794;55.782;37.452;2022-12-29T14:24:59;17.80;;;7.50;;
53881;SDS011;39794;55.782;37.452;2022-12-29T14:27:50;13.18;;;6.38;;
53881;SDS011;39794;55.782;37.452;2022-12-29T14:33:23;15.20;;;6.47;;
53881;SDS011;39794;55.782;37.452;2022-12-29T14:35:55;14.73;;;7.05;;
53881;SDS011;39794;55.782;37.452;2022-12-29T14:38:26;17.90;;;7.10;;
53881;SDS011;39794;55.782;37.452;2022-12-29T14:43:57;18.17;;;7.75;;
53881;SDS011;39794;55.782;37.452;2022-12-29T14:49:27;14.75;;;6.10;;
53881;SDS011;39794;55.782;37.452;2022-12-29T14:52:06;13.68;;;7.10;;
53881;SDS011;39794;55.782;37.452;2022-12-29T14:54:49;16.40;;;7.55;;
53881;SDS011;39794;55.782;37.452;2022-12-29T14:57:21;15.57;;;7.22;;
53881;SDS011;39794;55.782;37.452;2022-12-29T14:59:53;14.95;;;7.03;;
53881;SDS011;39794;55.782;37.452;2022-12-29T15:02:24;17.23;;;7.35;;
53881;SDS011;39794;55.782;37.452;2022-12-29T15:05:00;16.13;;;7.38;;
53881;SDS011;39794;55.782;37.452;2022-12-29T15:07:37;15.40;;;6.50;;
53881;SDS011;39794;55.782;37.452;2022-12-29T15:10:08;14.95;;;6.80;;
53881;SDS011;39794;55.782;37.452;2022-12-29T15:12:43;15.88;;;7.38;;
53881;SDS011;39794;55.782;37.452;2022-12-29T15:15:19;15.25;;;6.82;;
53881;SDS011;39794;55.782;37.452;2022-12-29T15:17:49;16.92;;;7.72;;
53881;SDS011;39794;55.782;37.452;2022-12-29T15:20:21;18.13;;;7.50;;
53881;SDS011;39794;55.782;37.452;2022-12-29T15:22:54;14.30;;;7.72;;
53881;SDS011;39794;55.782;37.452;2022-12-29T15:25:24;19.45;;;7.43;;
53881;SDS011;39794;55.782;37.452;2022-12-29T15:27:57;14.35;;;6.70;;
53881;SDS011;39794;55.782;37.452;2022-12-29T15:30:29;17.30;;;7.60;;
53881;SDS011;39794;55.782;37.452;2022-12-29T15:32:57;16.13;;;7.22;;
53881;SDS011;39794;55.782;37.452;2022-12-29T15:35:29;17.00;;;6.60;;